sensor_id;sensor_type;location;lat;lon;timestamp;P1;durP1;ratioP1;P2;durP2;ratioP2
71769;SDS011;66386;52.122;5.420;2023-06-22T00:02:25;3.78;;;3.10;;
71769;SDS011;66386;52.122;5.420;2023-06-22T00:04:52;6.00;;;3.10;;
71769;SDS011;66386;52.122;5.420;2023-06-22T00:07:18;5.55;;;3.13;;
71769;SDS011;66386;52.122;5.420;2023-06-22T00:09:45;3.97;;;2.97;;
71769;SDS011;66386;52.122;5.420;2023-06-22T00:12:11;3.67;;;3.13;;
71769;SDS011;66386;52.122;5.420;2023-06-22T00:14:38;5.40;;;2.80;;
71769;SDS011;66386;52.122;5.420;2023-06-22T00:17:04;5.13;;;3.15;;
71769;SDS011;66386;52.122;5.420;2023-06-22T00:19:31;4.38;;;2.90;;
71769;SDS011;66386;52.122;5.420;2023-06-22T00:21:58;5.00;;;3.13;;
71769;SDS011;66386;52.122;5.420;2023-06-22T00:24:26;5.93;;;3.28;;
71769;SDS011;66386;52.122;5.420;2023-06-22T00:26:53;3.58;;;2.97;;
71769;SDS011;66386;52.122;5.420;2023-06-22T00:29:19;5.47;;;3.13;;
71769;SDS011;66386;52.122;5.420;2023-06-22T00:31:46;3.47;;;2.80;;
71769;SDS011;66386;52.122;5.420;2023-06-22T00:34:13;3.60;;;3.17;;
71769;SDS011;66386;52.122;5.420;2023-06-22T00:36:39;3.15;;;2.83;;
71769;SDS011;66386;52.122;5.420;2023-06-22T00:39:07;4.30;;;2.88;;
71769;SDS011;66386;52.122;5.420;2023-06-22T00:41:34;6.45;;;3.28;;
71769;SDS011;66386;52.122;5.420;2023-06-22T00:44:00;3.30;;;2.53;;
71769;SDS011;66386;52.122;5.420;2023-06-22T00:46:27;3.60;;;2.87;;
71769;SDS011;66386;52.122;5.420;2023-06-22T00:48:54;5.43;;;3.20;;
71769;SDS011;66386;52.122;5.420;2023-06-22T00:51:23;6.25;;;3.28;;
71769;SDS011;66386;52.122;5.420;2023-06-22T00:53:50;4.80;;;3.08;;
71769;SDS011;66386;52.122;5.420;2023-06-22T00:56:19;4.88;;;3.35;;
71769;SDS011;66386;52.122;5.420;2023-06-22T00:58:51;3.83;;;2.90;;
71769;SDS011;66386;52.122;5.420;2023-06-22T01:01:19;3.80;;;3.38;;
71769;SDS011;66386;52.122;5.420;2023-06-22T01:03:49;4.95;;;3.20;;
71769;SDS011;66386;52.122;5.420;2023-06-22T01:06:19;5.07;;;3.70;;
71769;SDS011;66386;52.122;5.420;2023-06-22T01:09:06;7.57;;;3.88;;
71769;SDS011;66386;52.122;5.420;2023-06-22T01:11:43;4.07;;;3.20;;
71769;SDS011;66386;52.122;5.420;2023-06-22T01:14:23;5.53;;;3.63;;
71769;SDS011;66386;52.122;5.420;2023-06-22T01:16:54;4.50;;;4.00;;
71769;SDS011;66386;52.122;5.420;2023-06-22T01:22:07;6.53;;;3.85;;
71769;SDS011;66386;52.122;5.420;2023-06-22T01:24:44;4.87;;;3.73;;
71769;SDS011;66386;52.122;5.420;2023-06-22T01:30:03;5.90;;;4.13;;
71769;SDS011;66386;52.122;5.420;2023-06-22T01:32:33;5.53;;;3.88;;
71769;SDS011;66386;52.122;5.420;2023-06-22T01:35:03;6.03;;;3.83;;
71769;SDS011;66386;52.122;5.420;2023-06-22T01:37:33;7.40;;;4.03;;
71769;SDS011;66386;52.122;5.420;2023-06-22T01:40:01;6.00;;;3.83;;
71769;SDS011;66386;52.122;5.420;2023-06-22T01:42:29;7.50;;;4.00;;
71769;SDS011;66386;52.122;5.420;2023-06-22T01:44:56;5.05;;;3.80;;
71769;SDS011;66386;52.122;5.420;2023-06-22T01:47:25;4.47;;;3.58;;
71769;SDS011;66386;52.122;5.420;2023-06-22T01:49:54;5.97;;;3.67;;
71769;SDS011;66386;52.122;5.420;2023-06-22T01:52:21;4.95;;;4.05;;
71769;SDS011;66386;52.122;5.420;2023-06-22T01:54:47;5.88;;;4.10;;
71769;SDS011;66386;52.122;5.420;2023-06-22T01:57:14;5.07;;;4.30;;
71769;SDS011;66386;52.122;5.420;2023-06-22T02:02:30;5.37;;;3.87;;
71769;SDS011;66386;52.122;5.420;2023-06-22T02:05:03;4.90;;;3.53;;
71769;SDS011;66386;52.122;5.420;2023-06-22T02:07:41;6.50;;;3.90;;
71769;SDS011;66386;52.122;5.420;2023-06-22T02:10:11;5.63;;;3.70;;
71769;SDS011;66386;52.122;5.420;2023-06-22T02:12:40;5.35;;;4.10;;
71769;SDS011;66386;52.122;5.420;2023-06-22T02:15:09;4.87;;;3.67;;
71769;SDS011;66386;52.122;5.420;2023-06-22T02:17:36;4.82;;;4.03;;
71769;SDS011;66386;52.122;5.420;2023-06-22T02:20:03;5.10;;;3.60;;
71769;SDS011;66386;52.122;5.420;2023-06-22T02:22:33;6.07;;;3.95;;
71769;SDS011;66386;52.122;5.420;2023-06-22T02:25:00;4.50;;;3.55;;
71769;SDS011;66386;52.122;5.420;2023-06-22T02:27:26;5.23;;;3.70;;
71769;SDS011;66386;52.122;5.420;2023-06-22T02:29:53;5.38;;;4.30;;
71769;SDS011;66386;52.122;5.420;2023-06-22T02:32:19;4.72;;;3.58;;
71769;SDS011;66386;52.122;5.420;2023-06-22T02:34:46;5.30;;;3.60;;
71769;SDS011;66386;52.122;5.420;2023-06-22T02:37:14;7.38;;;4.03;;
71769;SDS011;66386;52.122;5.420;2023-06-22T02:39:41;4.90;;;3.80;;
71769;SDS011;66386;52.122;5.420;2023-06-22T02:42:07;5.93;;;4.30;;
71769;SDS011;66386;52.122;5.420;2023-06-22T02:44:36;6.05;;;4.40;;
71769;SDS011;66386;52.122;5.420;2023-06-22T02:47:03;6.15;;;4.30;;
71769;SDS011;66386;52.122;5.420;2023-06-22T02:49:30;6.35;;;4.43;;
71769;SDS011;66386;52.122;5.420;2023-06-22T02:51:57;5.87;;;3.93;;
71769;SDS011;66386;52.122;5.420;2023-06-22T02:54:24;6.88;;;4.32;;
71769;SDS011;66386;52.122;5.420;2023-06-22T02:56:50;6.57;;;4.03;;
71769;SDS011;66386;52.122;5.420;2023-06-22T02:59:17;5.13;;;3.95;;
71769;SDS011;66386;52.122;5.420;2023-06-22T03:01:43;10.18;;;4.18;;
71769;SDS011;66386;52.122;5.420;2023-06-22T03:04:10;5.83;;;4.13;;
71769;SDS011;66386;52.122;5.420;2023-06-22T03:06:37;7.10;;;3.95;;
71769;SDS011;66386;52.122;5.420;2023-06-22T03:09:07;4.80;;;3.80;;
71769;SDS011;66386;52.122;5.420;2023-06-22T03:11:33;6.30;;;3.40;;
71769;SDS011;66386;52.122;5.420;2023-06-22T03:14:00;7.72;;;4.25;;
71769;SDS011;66386;52.122;5.420;2023-06-22T03:16:28;5.30;;;3.90;;
71769;SDS011;66386;52.122;5.420;2023-06-22T03:18:55;4.90;;;3.47;;
71769;SDS011;66386;52.122;5.420;2023-06-22T03:21:22;7.07;;;3.80;;
71769;SDS011;66386;52.122;5.420;2023-06-22T03:23:49;5.28;;;3.50;;
71769;SDS011;66386;52.122;5.420;2023-06-22T03:26:16;5.22;;;3.75;;
71769;SDS011;66386;52.122;5.420;2023-06-22T03:28:44;5.53;;;4.10;;
71769;SDS011;66386;52.122;5.420;2023-06-22T03:31:10;6.43;;;3.97;;
71769;SDS011;66386;52.122;5.420;2023-06-22T03:33:37;6.88;;;4.43;;
71769;SDS011;66386;52.122;5.420;2023-06-22T03:36:03;7.05;;;4.00;;
71769;SDS011;66386;52.122;5.420;2023-06-22T03:38:30;7.80;;;4.50;;
71769;SDS011;66386;52.122;5.420;2023-06-22T03:40:57;5.60;;;4.73;;
71769;SDS011;66386;52.122;5.420;2023-06-22T03:43:23;9.65;;;5.80;;
71769;SDS011;66386;52.122;5.420;2023-06-22T03:45:50;6.57;;;5.57;;
71769;SDS011;66386;52.122;5.420;2023-06-22T03:48:16;10.00;;;6.75;;
71769;SDS011;66386;52.122;5.420;2023-06-22T03:50:43;7.43;;;5.30;;
71769;SDS011;66386;52.122;5.420;2023-06-22T03:53:11;8.37;;;5.63;;
71769;SDS011;66386;52.122;5.420;2023-06-22T03:55:45;7.35;;;5.72;;
71769;SDS011;66386;52.122;5.420;2023-06-22T03:58:15;8.48;;;6.55;;
71769;SDS011;66386;52.122;5.420;2023-06-22T04:00:43;8.77;;;5.97;;
71769;SDS011;66386;52.122;5.420;2023-06-22T04:03:09;13.52;;;6.55;;
71769;SDS011;66386;52.122;5.420;2023-06-22T04:05:36;9.00;;;6.47;;
71769;SDS011;66386;52.122;5.420;2023-06-22T04:08:04;11.82;;;6.65;;
71769;SDS011;66386;52.122;5.420;2023-06-22T04:10:31;8.88;;;6.75;;
71769;SDS011;66386;52.122;5.420;2023-06-22T04:12:58;11.70;;;7.22;;
71769;SDS011;66386;52.122;5.420;2023-06-22T04:15:24;11.18;;;7.68;;
71769;SDS011;66386;52.122;5.420;2023-06-22T04:17:51;10.93;;;7.57;;
71769;SDS011;66386;52.122;5.420;2023-06-22T04:20:18;10.88;;;7.05;;
71769;SDS011;66386;52.122;5.420;2023-06-22T04:22:44;11.48;;;7.45;;
71769;SDS011;66386;52.122;5.420;2023-06-22T04:25:12;9.82;;;7.43;;
71769;SDS011;66386;52.122;5.420;2023-06-22T04:27:38;9.48;;;7.75;;
71769;SDS011;66386;52.122;5.420;2023-06-22T04:30:07;13.73;;;8.03;;
71769;SDS011;66386;52.122;5.420;2023-06-22T04:32:34;10.68;;;8.23;;
71769;SDS011;66386;52.122;5.420;2023-06-22T04:35:04;12.45;;;8.98;;
71769;SDS011;66386;52.122;5.420;2023-06-22T04:37:32;14.15;;;9.80;;
71769;SDS011;66386;52.122;5.420;2023-06-22T04:39:59;14.43;;;9.40;;
71769;SDS011;66386;52.122;5.420;2023-06-22T04:42:26;12.33;;;9.10;;
71769;SDS011;66386;52.122;5.420;2023-06-22T04:44:53;14.20;;;10.20;;
71769;SDS011;66386;52.122;5.420;2023-06-22T04:47:20;14.77;;;9.73;;
71769;SDS011;66386;52.122;5.420;2023-06-22T04:49:46;14.07;;;8.77;;
71769;SDS011;66386;52.122;5.420;2023-06-22T04:52:13;17.27;;;11.27;;
71769;SDS011;66386;52.122;5.420;2023-06-22T04:54:46;14.37;;;9.87;;
71769;SDS011;66386;52.122;5.420;2023-06-22T04:57:16;12.98;;;10.32;;
71769;SDS011;66386;52.122;5.420;2023-06-22T04:59:43;13.43;;;10.07;;
71769;SDS011;66386;52.122;5.420;2023-06-22T05:02:10;15.60;;;10.80;;
71769;SDS011;66386;52.122;5.420;2023-06-22T05:04:37;17.10;;;11.48;;
71769;SDS011;66386;52.122;5.420;2023-06-22T05:07:07;16.57;;;10.43;;
71769;SDS011;66386;52.122;5.420;2023-06-22T05:09:33;15.10;;;11.15;;
71769;SDS011;66386;52.122;5.420;2023-06-22T05:12:00;15.90;;;12.00;;
71769;SDS011;66386;52.122;5.420;2023-06-22T05:14:29;20.42;;;12.60;;
71769;SDS011;66386;52.122;5.420;2023-06-22T05:16:56;17.90;;;13.13;;
71769;SDS011;66386;52.122;5.420;2023-06-22T05:19:25;17.57;;;12.83;;
71769;SDS011;66386;52.122;5.420;2023-06-22T05:21:57;16.42;;;12.88;;
71769;SDS011;66386;52.122;5.420;2023-06-22T05:24:24;18.05;;;12.88;;
71769;SDS011;66386;52.122;5.420;2023-06-22T05:26:50;20.65;;;14.50;;
71769;SDS011;66386;52.122;5.420;2023-06-22T05:29:17;19.75;;;14.40;;
71769;SDS011;66386;52.122;5.420;2023-06-22T05:31:43;21.20;;;15.13;;
71769;SDS011;66386;52.122;5.420;2023-06-22T05:34:10;24.25;;;16.45;;
71769;SDS011;66386;52.122;5.420;2023-06-22T05:36:36;20.10;;;14.82;;
71769;SDS011;66386;52.122;5.420;2023-06-22T05:39:10;22.60;;;16.13;;
71769;SDS011;66386;52.122;5.420;2023-06-22T05:41:39;21.10;;;15.15;;
71769;SDS011;66386;52.122;5.420;2023-06-22T05:44:05;23.03;;;15.60;;
71769;SDS011;66386;52.122;5.420;2023-06-22T05:46:32;20.27;;;15.60;;
71769;SDS011;66386;52.122;5.420;2023-06-22T05:48:59;20.67;;;15.55;;
71769;SDS011;66386;52.122;5.420;2023-06-22T05:51:25;20.83;;;15.48;;
71769;SDS011;66386;52.122;5.420;2023-06-22T05:53:52;22.20;;;15.73;;
71769;SDS011;66386;52.122;5.420;2023-06-22T05:56:18;23.57;;;16.53;;
71769;SDS011;66386;52.122;5.420;2023-06-22T05:58:45;21.58;;;16.30;;
71769;SDS011;66386;52.122;5.420;2023-06-22T06:01:13;23.02;;;15.95;;
71769;SDS011;66386;52.122;5.420;2023-06-22T06:03:41;20.25;;;15.60;;
71769;SDS011;66386;52.122;5.420;2023-06-22T06:06:08;18.80;;;15.00;;
71769;SDS011;66386;52.122;5.420;2023-06-22T06:08:37;18.87;;;15.73;;
71769;SDS011;66386;52.122;5.420;2023-06-22T06:11:04;20.98;;;14.98;;
71769;SDS011;66386;52.122;5.420;2023-06-22T06:13:31;17.10;;;15.35;;
71769;SDS011;66386;52.122;5.420;2023-06-22T06:15:57;17.92;;;15.02;;
71769;SDS011;66386;52.122;5.420;2023-06-22T06:18:25;16.35;;;14.65;;
71769;SDS011;66386;52.122;5.420;2023-06-22T06:20:52;17.23;;;14.93;;
71769;SDS011;66386;52.122;5.420;2023-06-22T06:23:19;17.13;;;14.85;;
71769;SDS011;66386;52.122;5.420;2023-06-22T06:25:45;18.52;;;15.20;;
71769;SDS011;66386;52.122;5.420;2023-06-22T06:28:12;17.42;;;15.55;;
71769;SDS011;66386;52.122;5.420;2023-06-22T06:30:38;18.00;;;15.38;;
71769;SDS011;66386;52.122;5.420;2023-06-22T06:33:05;16.60;;;13.87;;
71769;SDS011;66386;52.122;5.420;2023-06-22T06:35:35;16.25;;;14.65;;
71769;SDS011;66386;52.122;5.420;2023-06-22T06:38:02;15.98;;;14.35;;
71769;SDS011;66386;52.122;5.420;2023-06-22T06:40:28;17.00;;;14.63;;
71769;SDS011;66386;52.122;5.420;2023-06-22T06:42:56;18.13;;;15.20;;
71769;SDS011;66386;52.122;5.420;2023-06-22T06:45:23;16.97;;;15.27;;
71769;SDS011;66386;52.122;5.420;2023-06-22T06:47:50;19.05;;;14.85;;
71769;SDS011;66386;52.122;5.420;2023-06-22T06:50:18;17.30;;;15.60;;
71769;SDS011;66386;52.122;5.420;2023-06-22T06:52:45;16.85;;;14.73;;
71769;SDS011;66386;52.122;5.420;2023-06-22T06:55:11;15.75;;;14.25;;
71769;SDS011;66386;52.122;5.420;2023-06-22T06:57:39;16.57;;;14.73;;
71769;SDS011;66386;52.122;5.420;2023-06-22T07:00:10;15.80;;;14.20;;
71769;SDS011;66386;52.122;5.420;2023-06-22T07:02:40;16.42;;;14.65;;
71769;SDS011;66386;52.122;5.420;2023-06-22T07:05:09;15.73;;;14.13;;
71769;SDS011;66386;52.122;5.420;2023-06-22T07:07:36;16.98;;;14.30;;
71769;SDS011;66386;52.122;5.420;2023-06-22T07:10:04;15.13;;;13.53;;
71769;SDS011;66386;52.122;5.420;2023-06-22T07:12:32;14.30;;;12.80;;
71769;SDS011;66386;52.122;5.420;2023-06-22T07:15:06;18.30;;;12.23;;
71769;SDS011;66386;52.122;5.420;2023-06-22T07:17:35;13.52;;;12.10;;
71769;SDS011;66386;52.122;5.420;2023-06-22T07:20:02;13.95;;;12.35;;
71769;SDS011;66386;52.122;5.420;2023-06-22T07:22:34;13.60;;;11.93;;
71769;SDS011;66386;52.122;5.420;2023-06-22T07:25:00;13.18;;;11.68;;
71769;SDS011;66386;52.122;5.420;2023-06-22T07:27:29;13.18;;;11.82;;
71769;SDS011;66386;52.122;5.420;2023-06-22T07:30:04;14.07;;;12.25;;
71769;SDS011;66386;52.122;5.420;2023-06-22T07:32:31;13.20;;;11.80;;
71769;SDS011;66386;52.122;5.420;2023-06-22T07:34:57;13.53;;;12.23;;
71769;SDS011;66386;52.122;5.420;2023-06-22T07:37:24;13.05;;;11.43;;
71769;SDS011;66386;52.122;5.420;2023-06-22T07:39:51;13.40;;;11.98;;
71769;SDS011;66386;52.122;5.420;2023-06-22T07:42:19;11.25;;;10.05;;
71769;SDS011;66386;52.122;5.420;2023-06-22T07:44:46;11.80;;;10.70;;
71769;SDS011;66386;52.122;5.420;2023-06-22T07:47:12;12.73;;;10.13;;
71769;SDS011;66386;52.122;5.420;2023-06-22T07:49:39;13.25;;;11.95;;
71769;SDS011;66386;52.122;5.420;2023-06-22T07:52:05;12.48;;;11.38;;
71769;SDS011;66386;52.122;5.420;2023-06-22T07:54:32;12.18;;;10.98;;
71769;SDS011;66386;52.122;5.420;2023-06-22T07:56:59;12.63;;;11.43;;
71769;SDS011;66386;52.122;5.420;2023-06-22T07:59:25;11.57;;;10.43;;
71769;SDS011;66386;52.122;5.420;2023-06-22T08:01:52;12.07;;;10.85;;
71769;SDS011;66386;52.122;5.420;2023-06-22T08:04:18;11.02;;;10.02;;
71769;SDS011;66386;52.122;5.420;2023-06-22T08:06:45;11.73;;;10.52;;
71769;SDS011;66386;52.122;5.420;2023-06-22T08:09:12;12.57;;;11.18;;
71769;SDS011;66386;52.122;5.420;2023-06-22T08:11:38;11.77;;;10.67;;
71769;SDS011;66386;52.122;5.420;2023-06-22T08:14:05;10.38;;;9.45;;
71769;SDS011;66386;52.122;5.420;2023-06-22T08:16:31;10.68;;;9.57;;
71769;SDS011;66386;52.122;5.420;2023-06-22T08:18:58;10.35;;;9.20;;
71769;SDS011;66386;52.122;5.420;2023-06-22T08:21:24;11.05;;;10.05;;
71769;SDS011;66386;52.122;5.420;2023-06-22T08:23:51;10.80;;;9.70;;
71769;SDS011;66386;52.122;5.420;2023-06-22T08:26:17;11.60;;;10.40;;
71769;SDS011;66386;52.122;5.420;2023-06-22T08:28:44;11.45;;;10.35;;
71769;SDS011;66386;52.122;5.420;2023-06-22T08:31:10;10.00;;;9.10;;
71769;SDS011;66386;52.122;5.420;2023-06-22T08:33:38;10.48;;;9.40;;
71769;SDS011;66386;52.122;5.420;2023-06-22T08:36:14;12.23;;;8.20;;
71769;SDS011;66386;52.122;5.420;2023-06-22T08:38:41;10.25;;;8.10;;
71769;SDS011;66386;52.122;5.420;2023-06-22T08:41:07;9.60;;;8.70;;
71769;SDS011;66386;52.122;5.420;2023-06-22T08:43:34;8.48;;;7.72;;
71769;SDS011;66386;52.122;5.420;2023-06-22T08:46:00;7.63;;;6.93;;
71769;SDS011;66386;52.122;5.420;2023-06-22T08:48:28;8.23;;;7.43;;
71769;SDS011;66386;52.122;5.420;2023-06-22T08:50:55;8.23;;;7.32;;
71769;SDS011;66386;52.122;5.420;2023-06-22T08:53:21;7.30;;;6.57;;
71769;SDS011;66386;52.122;5.420;2023-06-22T08:55:48;8.00;;;6.90;;
71769;SDS011;66386;52.122;5.420;2023-06-22T08:58:17;7.57;;;6.88;;
71769;SDS011;66386;52.122;5.420;2023-06-22T09:00:44;7.30;;;6.70;;
71769;SDS011;66386;52.122;5.420;2023-06-22T09:03:11;7.85;;;6.97;;
71769;SDS011;66386;52.122;5.420;2023-06-22T09:05:38;7.95;;;7.22;;
71769;SDS011;66386;52.122;5.420;2023-06-22T09:08:04;5.72;;;5.22;;
71769;SDS011;66386;52.122;5.420;2023-06-22T09:10:31;6.55;;;5.68;;
71769;SDS011;66386;52.122;5.420;2023-06-22T09:12:58;4.77;;;4.37;;
71769;SDS011;66386;52.122;5.420;2023-06-22T09:15:24;4.15;;;3.75;;
71769;SDS011;66386;52.122;5.420;2023-06-22T09:17:51;4.55;;;4.18;;
71769;SDS011;66386;52.122;5.420;2023-06-22T09:20:20;4.93;;;3.67;;
71769;SDS011;66386;52.122;5.420;2023-06-22T09:22:47;4.25;;;3.85;;
71769;SDS011;66386;52.122;5.420;2023-06-22T09:25:13;5.00;;;4.50;;
71769;SDS011;66386;52.122;5.420;2023-06-22T09:27:40;4.97;;;4.47;;
71769;SDS011;66386;52.122;5.420;2023-06-22T09:30:06;8.38;;;5.60;;
71769;SDS011;66386;52.122;5.420;2023-06-22T09:32:33;5.30;;;4.78;;
71769;SDS011;66386;52.122;5.420;2023-06-22T09:35:03;5.35;;;4.85;;
71769;SDS011;66386;52.122;5.420;2023-06-22T09:37:32;4.40;;;4.10;;
71769;SDS011;66386;52.122;5.420;2023-06-22T09:39:58;5.40;;;4.90;;
71769;SDS011;66386;52.122;5.420;2023-06-22T09:42:25;4.40;;;4.00;;
71769;SDS011;66386;52.122;5.420;2023-06-22T09:44:51;5.00;;;4.50;;
71769;SDS011;66386;52.122;5.420;2023-06-22T09:47:18;6.22;;;4.82;;
71769;SDS011;66386;52.122;5.420;2023-06-22T09:49:44;6.10;;;5.37;;
71769;SDS011;66386;52.122;5.420;2023-06-22T09:52:14;4.72;;;4.25;;
71769;SDS011;66386;52.122;5.420;2023-06-22T09:54:40;5.45;;;5.05;;
71769;SDS011;66386;52.122;5.420;2023-06-22T09:57:07;6.18;;;5.57;;
71769;SDS011;66386;52.122;5.420;2023-06-22T09:59:33;6.40;;;5.90;;
71769;SDS011;66386;52.122;5.420;2023-06-22T10:02:00;5.80;;;5.23;;
71769;SDS011;66386;52.122;5.420;2023-06-22T10:04:27;6.10;;;5.55;;
71769;SDS011;66386;52.122;5.420;2023-06-22T10:06:54;5.90;;;5.20;;
71769;SDS011;66386;52.122;5.420;2023-06-22T10:09:20;5.78;;;5.20;;
71769;SDS011;66386;52.122;5.420;2023-06-22T10:11:47;6.53;;;5.28;;
71769;SDS011;66386;52.122;5.420;2023-06-22T10:14:14;7.77;;;4.70;;
71769;SDS011;66386;52.122;5.420;2023-06-22T10:16:40;6.95;;;4.60;;
71769;SDS011;66386;52.122;5.420;2023-06-22T10:19:07;5.47;;;4.70;;
71769;SDS011;66386;52.122;5.420;2023-06-22T10:21:34;6.05;;;4.22;;
71769;SDS011;66386;52.122;5.420;2023-06-22T10:24:01;5.10;;;4.60;;
71769;SDS011;66386;52.122;5.420;2023-06-22T10:26:33;4.90;;;4.40;;
71769;SDS011;66386;52.122;5.420;2023-06-22T10:28:59;5.95;;;3.92;;
71769;SDS011;66386;52.122;5.420;2023-06-22T10:31:32;4.53;;;3.78;;
71769;SDS011;66386;52.122;5.420;2023-06-22T10:33:59;4.93;;;4.20;;
71769;SDS011;66386;52.122;5.420;2023-06-22T10:36:26;5.60;;;3.85;;
71769;SDS011;66386;52.122;5.420;2023-06-22T10:38:52;6.63;;;4.50;;
71769;SDS011;66386;52.122;5.420;2023-06-22T10:41:19;4.35;;;3.95;;
71769;SDS011;66386;52.122;5.420;2023-06-22T10:43:46;3.75;;;3.40;;
71769;SDS011;66386;52.122;5.420;2023-06-22T10:46:12;4.47;;;3.75;;
71769;SDS011;66386;52.122;5.420;2023-06-22T10:48:39;4.32;;;3.67;;
71769;SDS011;66386;52.122;5.420;2023-06-22T10:51:05;4.47;;;3.43;;
71769;SDS011;66386;52.122;5.420;2023-06-22T10:53:32;5.68;;;4.13;;
71769;SDS011;66386;52.122;5.420;2023-06-22T10:55:58;4.40;;;3.70;;
71769;SDS011;66386;52.122;5.420;2023-06-22T10:58:25;6.50;;;4.05;;
71769;SDS011;66386;52.122;5.420;2023-06-22T11:00:52;5.22;;;3.97;;
71769;SDS011;66386;52.122;5.420;2023-06-22T11:03:19;4.73;;;4.00;;
71769;SDS011;66386;52.122;5.420;2023-06-22T11:05:45;5.63;;;3.90;;
71769;SDS011;66386;52.122;5.420;2023-06-22T11:08:13;5.68;;;5.10;;
71769;SDS011;66386;52.122;5.420;2023-06-22T11:10:40;7.30;;;4.10;;
71769;SDS011;66386;52.122;5.420;2023-06-22T11:13:07;6.63;;;5.07;;
71769;SDS011;66386;52.122;5.420;2023-06-22T11:15:38;6.93;;;5.07;;
71769;SDS011;66386;52.122;5.420;2023-06-22T11:18:05;5.28;;;4.47;;
71769;SDS011;66386;52.122;5.420;2023-06-22T11:20:33;4.90;;;4.28;;
71769;SDS011;66386;52.122;5.420;2023-06-22T11:23:05;5.70;;;4.47;;
71769;SDS011;66386;52.122;5.420;2023-06-22T11:25:32;5.30;;;4.80;;
71769;SDS011;66386;52.122;5.420;2023-06-22T11:28:04;5.00;;;4.47;;
71769;SDS011;66386;52.122;5.420;2023-06-22T11:30:31;6.80;;;4.15;;
71769;SDS011;66386;52.122;5.420;2023-06-22T11:32:58;5.63;;;4.10;;
71769;SDS011;66386;52.122;5.420;2023-06-22T11:35:25;5.47;;;4.68;;
71769;SDS011;66386;52.122;5.420;2023-06-22T11:37:52;5.47;;;4.50;;
71769;SDS011;66386;52.122;5.420;2023-06-22T11:40:18;4.63;;;3.77;;
71769;SDS011;66386;52.122;5.420;2023-06-22T11:42:45;8.18;;;6.28;;
71769;SDS011;66386;52.122;5.420;2023-06-22T11:45:11;7.50;;;6.18;;
71769;SDS011;66386;52.122;5.420;2023-06-22T11:47:38;8.23;;;6.95;;
71769;SDS011;66386;52.122;5.420;2023-06-22T11:50:05;9.02;;;7.53;;
71769;SDS011;66386;52.122;5.420;2023-06-22T11:52:33;8.00;;;7.20;;
71769;SDS011;66386;52.122;5.420;2023-06-22T11:55:02;9.18;;;7.85;;
71769;SDS011;66386;52.122;5.420;2023-06-22T11:57:35;9.57;;;7.28;;
71769;SDS011;66386;52.122;5.420;2023-06-22T12:00:04;7.72;;;6.20;;
71769;SDS011;66386;52.122;5.420;2023-06-22T12:02:44;8.77;;;6.80;;
71769;SDS011;66386;52.122;5.420;2023-06-22T12:05:13;8.40;;;6.77;;
71769;SDS011;66386;52.122;5.420;2023-06-22T12:07:40;9.05;;;7.30;;
71769;SDS011;66386;52.122;5.420;2023-06-22T12:10:07;8.55;;;7.30;;
71769;SDS011;66386;52.122;5.420;2023-06-22T12:12:33;9.52;;;6.60;;
71769;SDS011;66386;52.122;5.420;2023-06-22T12:15:00;8.13;;;7.32;;
71769;SDS011;66386;52.122;5.420;2023-06-22T12:17:29;8.90;;;7.03;;
71769;SDS011;66386;52.122;5.420;2023-06-22T12:19:56;8.73;;;7.53;;
71769;SDS011;66386;52.122;5.420;2023-06-22T12:22:23;7.13;;;5.93;;
71769;SDS011;66386;52.122;5.420;2023-06-22T12:24:49;9.48;;;6.80;;
71769;SDS011;66386;52.122;5.420;2023-06-22T12:27:16;7.50;;;6.80;;
71769;SDS011;66386;52.122;5.420;2023-06-22T12:29:47;9.47;;;7.93;;
71769;SDS011;66386;52.122;5.420;2023-06-22T12:32:14;11.07;;;8.30;;
71769;SDS011;66386;52.122;5.420;2023-06-22T12:34:44;10.38;;;8.23;;
71769;SDS011;66386;52.122;5.420;2023-06-22T12:37:11;10.13;;;8.65;;
71769;SDS011;66386;52.122;5.420;2023-06-22T12:39:41;11.55;;;8.52;;
71769;SDS011;66386;52.122;5.420;2023-06-22T12:42:07;11.23;;;8.40;;
71769;SDS011;66386;52.122;5.420;2023-06-22T12:44:35;9.00;;;8.00;;
71769;SDS011;66386;52.122;5.420;2023-06-22T12:47:01;8.90;;;7.95;;
71769;SDS011;66386;52.122;5.420;2023-06-22T12:49:29;8.80;;;7.90;;
71769;SDS011;66386;52.122;5.420;2023-06-22T12:51:55;8.32;;;7.53;;
71769;SDS011;66386;52.122;5.420;2023-06-22T12:54:22;8.53;;;7.40;;
71769;SDS011;66386;52.122;5.420;2023-06-22T12:56:49;11.73;;;7.55;;
71769;SDS011;66386;52.122;5.420;2023-06-22T12:59:17;12.57;;;7.45;;
71769;SDS011;66386;52.122;5.420;2023-06-22T13:01:44;8.35;;;6.80;;
71769;SDS011;66386;52.122;5.420;2023-06-22T13:04:11;8.13;;;6.45;;
71769;SDS011;66386;52.122;5.420;2023-06-22T13:06:41;7.93;;;7.00;;
71769;SDS011;66386;52.122;5.420;2023-06-22T13:09:09;8.10;;;6.88;;
71769;SDS011;66386;52.122;5.420;2023-06-22T13:11:39;8.82;;;8.02;;
71769;SDS011;66386;52.122;5.420;2023-06-22T13:14:06;9.65;;;7.75;;
71769;SDS011;66386;52.122;5.420;2023-06-22T13:16:32;12.88;;;8.75;;
71769;SDS011;66386;52.122;5.420;2023-06-22T13:18:59;14.97;;;8.87;;
71769;SDS011;66386;52.122;5.420;2023-06-22T13:21:26;9.48;;;8.43;;
71769;SDS011;66386;52.122;5.420;2023-06-22T13:23:52;8.68;;;7.35;;
71769;SDS011;66386;52.122;5.420;2023-06-22T13:26:20;10.93;;;8.88;;
71769;SDS011;66386;52.122;5.420;2023-06-22T13:28:49;9.10;;;8.10;;
71769;SDS011;66386;52.122;5.420;2023-06-22T13:31:15;11.73;;;7.40;;
71769;SDS011;66386;52.122;5.420;2023-06-22T13:33:42;9.95;;;7.47;;
71769;SDS011;66386;52.122;5.420;2023-06-22T13:36:10;9.52;;;8.63;;
71769;SDS011;66386;52.122;5.420;2023-06-22T13:38:36;9.02;;;8.05;;
71769;SDS011;66386;52.122;5.420;2023-06-22T13:41:05;9.75;;;7.93;;
71769;SDS011;66386;52.122;5.420;2023-06-22T13:43:31;10.00;;;8.50;;
71769;SDS011;66386;52.122;5.420;2023-06-22T13:45:58;10.80;;;8.45;;
71769;SDS011;66386;52.122;5.420;2023-06-22T13:48:25;9.27;;;8.10;;
71769;SDS011;66386;52.122;5.420;2023-06-22T13:50:52;10.30;;;8.20;;
71769;SDS011;66386;52.122;5.420;2023-06-22T13:53:18;11.02;;;8.18;;
71769;SDS011;66386;52.122;5.420;2023-06-22T13:55:45;9.63;;;8.03;;
71769;SDS011;66386;52.122;5.420;2023-06-22T13:58:13;12.05;;;8.57;;
71769;SDS011;66386;52.122;5.420;2023-06-22T14:00:40;10.18;;;8.70;;
71769;SDS011;66386;52.122;5.420;2023-06-22T14:03:06;8.85;;;7.75;;
71769;SDS011;66386;52.122;5.420;2023-06-22T14:05:33;10.00;;;8.10;;
71769;SDS011;66386;52.122;5.420;2023-06-22T14:08:00;9.77;;;8.77;;
71769;SDS011;66386;52.122;5.420;2023-06-22T14:10:26;9.85;;;8.40;;
71769;SDS011;66386;52.122;5.420;2023-06-22T14:12:53;9.75;;;8.75;;
71769;SDS011;66386;52.122;5.420;2023-06-22T14:15:21;9.63;;;8.23;;
71769;SDS011;66386;52.122;5.420;2023-06-22T14:17:48;10.98;;;8.43;;
71769;SDS011;66386;52.122;5.420;2023-06-22T14:20:14;14.20;;;8.90;;
71769;SDS011;66386;52.122;5.420;2023-06-22T14:22:41;10.35;;;8.65;;
71769;SDS011;66386;52.122;5.420;2023-06-22T14:25:08;9.55;;;8.65;;
71769;SDS011;66386;52.122;5.420;2023-06-22T14:27:35;12.15;;;8.82;;
71769;SDS011;66386;52.122;5.420;2023-06-22T14:30:02;9.52;;;8.52;;
71769;SDS011;66386;52.122;5.420;2023-06-22T14:32:32;12.90;;;9.47;;
71769;SDS011;66386;52.122;5.420;2023-06-22T14:34:58;9.88;;;8.95;;
71769;SDS011;66386;52.122;5.420;2023-06-22T14:37:25;18.77;;;11.10;;
71769;SDS011;66386;52.122;5.420;2023-06-22T14:39:51;11.27;;;9.80;;
71769;SDS011;66386;52.122;5.420;2023-06-22T14:42:18;12.50;;;9.73;;
71769;SDS011;66386;52.122;5.420;2023-06-22T14:44:44;10.77;;;9.70;;
71769;SDS011;66386;52.122;5.420;2023-06-22T14:47:11;9.85;;;8.85;;
71769;SDS011;66386;52.122;5.420;2023-06-22T14:49:37;11.75;;;10.00;;